createdAt,value
2018-06-16T00:00:00.000Z,65.66
2018-06-16T00:00:59.944Z,65.56
2018-06-16T00:01:59.883Z,65.37
2018-06-16T00:02:59.824Z,65.47
2018-06-16T00:03:59.768Z,65.66
2018-06-16T00:04:59.703Z,65.75
2018-06-16T00:05:59.655Z,65.47
2018-06-16T00:06:59.638Z,65.56
2018-06-16T00:07:59.537Z,65.37
2018-06-16T00:08:59.476Z,65.47
2018-06-16T00:09:59.416Z,65.75
2018-06-16T00:10:59.357Z,66.14
2018-06-16T00:11:59.297Z,65.47
2018-06-16T00:12:59.242Z,65.75
2018-06-16T00:13:59.181Z,66.04
2018-06-16T00:14:59.133Z,65.85
2018-06-16T00:15:59.064Z,66.04
2018-06-16T00:16:59.016Z,65.66
2018-06-16T00:17:58.956Z,66.14
2018-06-16T00:18:58.899Z,66.01
2018-06-16T00:19:58.840Z,65.85
2018-06-16T00:20:58.777Z,66.01
2018-06-16T00:21:58.715Z,66.72
2018-06-16T00:22:58.661Z,66.49
2018-06-16T00:23:58.599Z,66.20
2018-06-16T00:24:58.540Z,66.69
2018-06-16T00:25:58.481Z,66.69
2018-06-16T00:26:58.424Z,66.69
2018-06-16T00:27:58.367Z,66.59
2018-06-16T00:28:58.314Z,66.97
2018-06-16T00:29:58.246Z,66.82
2018-06-16T00:30:58.192Z,66.82
2018-06-16T00:31:58.126Z,66.82
2018-06-16T00:32:58.081Z,66.33
2018-06-16T00:33:58.021Z,66.43
2018-06-16T00:34:57.955Z,66.52
2018-06-16T00:35:57.899Z,66.33
2018-06-16T00:36:57.839Z,66.33
2018-06-16T00:37:57.781Z,66.62
2018-06-16T00:38:57.721Z,66.33
2018-06-16T00:39:57.677Z,66.82
2018-06-16T00:40:57.603Z,66.59
2018-06-16T00:41:57.550Z,67.26
2018-06-16T00:42:57.492Z,66.59
2018-06-16T00:43:57.439Z,66.62
2018-06-16T00:44:57.367Z,66.49
2018-06-16T00:45:57.360Z,66.72
2018-06-16T00:46:57.255Z,66.91
2018-06-16T00:47:57.198Z,67.00
2018-06-16T00:48:57.138Z,66.78
2018-06-16T00:49:57.095Z,66.72
2018-06-16T00:50:57.028Z,66.59
2018-06-16T00:51:56.961Z,66.82
2018-06-16T00:52:56.929Z,66.52
2018-06-16T00:53:56.852Z,66.69
2018-06-16T00:54:56.789Z,66.49
2018-06-16T00:55:56.737Z,67.26
2018-06-16T00:56:56.672Z,67.07
2018-06-16T00:57:56.612Z,67.26
2018-06-16T00:58:56.554Z,66.97
2018-06-16T00:59:56.495Z,67.07
2018-06-16T01:00:56.436Z,67.16
2018-06-16T01:01:56.383Z,66.69
2018-06-16T01:02:56.326Z,66.78
2018-06-16T01:03:56.260Z,66.78
2018-06-16T01:04:56.214Z,66.59
2018-06-16T01:05:56.143Z,66.69
2018-06-16T01:06:56.082Z,67.07
2018-06-16T01:07:56.026Z,67.16
2018-06-16T01:08:55.961Z,67.36
2018-06-16T01:09:55.927Z,67.07
2018-06-16T01:10:55.852Z,67.36
2018-06-16T01:11:55.793Z,67.65
2018-06-16T01:12:55.736Z,67.65
2018-06-16T01:13:55.675Z,67.36
2018-06-16T01:14:55.613Z,67.36
2018-06-16T01:15:55.555Z,67.36
2018-06-16T01:16:55.496Z,67.84
2018-06-16T01:17:55.438Z,67.65
2018-06-16T01:18:55.380Z,67.74
2018-06-16T01:19:55.322Z,67.16
2018-06-16T01:20:55.261Z,67.46
2018-06-16T01:21:55.204Z,67.16
2018-06-16T01:22:55.143Z,67.55
2018-06-16T01:23:55.088Z,67.46
2018-06-16T01:24:55.028Z,67.46
2018-06-16T01:25:54.970Z,67.55
2018-06-16T01:26:54.908Z,67.65
2018-06-16T01:27:54.849Z,68.13
2018-06-16T01:28:54.791Z,67.84
2018-06-16T01:29:54.734Z,67.94
2018-06-16T01:30:54.676Z,68.04
2018-06-16T01:31:54.619Z,67.94
2018-06-16T01:32:54.560Z,67.74
2018-06-16T01:33:54.497Z,67.94
2018-06-16T01:34:54.439Z,67.84
2018-06-16T01:35:54.396Z,68.04
2018-06-16T01:36:54.326Z,68.32
2018-06-16T01:37:54.274Z,68.23
2018-06-16T01:38:54.201Z,67.84
2018-06-16T01:39:54.145Z,67.94
2018-06-16T01:40:54.088Z,68.04
2018-06-16T01:41:54.025Z,68.32
2018-06-16T01:42:53.971Z,68.77
2018-06-16T01:43:53.912Z,68.90
2018-06-16T01:44:53.854Z,68.77
2018-06-16T01:45:53.793Z,68.58
2018-06-16T01:46:53.733Z,68.38
2018-06-16T01:47:53.675Z,68.48
2018-06-16T01:48:53.616Z,68.80
2018-06-16T01:49:53.564Z,68.38
2018-06-16T01:50:53.499Z,68.38
2018-06-16T01:51:53.447Z,68.38
2018-06-16T01:52:53.383Z,68.38
2018-06-16T01:53:53.318Z,68.42
2018-06-16T01:54:53.265Z,68.32
2018-06-16T01:55:53.207Z,68.68
2018-06-16T01:56:53.151Z,68.29
2018-06-16T01:57:53.089Z,68.96
2018-06-16T01:58:53.029Z,68.48
2018-06-16T01:59:52.971Z,68.96
2018-06-16T02:00:52.912Z,68.77
2018-06-16T02:01:52.852Z,68.96
2018-06-16T02:02:52.794Z,69.25
2018-06-16T02:03:52.747Z,69.25
2018-06-16T02:04:52.697Z,69.15
2018-06-16T02:05:52.629Z,69.06
2018-06-16T02:06:52.563Z,68.96
2018-06-16T02:07:52.497Z,69.54
2018-06-16T02:08:52.448Z,69.25
2018-06-16T02:09:52.380Z,68.87
2018-06-16T02:10:52.325Z,69.45
2018-06-16T02:11:52.263Z,69.45
2018-06-16T02:12:52.204Z,69.45
2018-06-16T02:13:52.145Z,69.35
2018-06-16T02:14:52.089Z,69.54
2018-06-16T02:15:52.031Z,69.45
2018-06-16T02:16:51.971Z,69.64
2018-06-16T02:17:51.920Z,69.54
2018-06-16T02:18:51.849Z,69.31
2018-06-16T02:19:51.792Z,69.54
2018-06-16T02:20:51.737Z,69.45
2018-06-16T02:21:51.673Z,69.64
2018-06-16T02:22:51.623Z,69.54
2018-06-16T02:23:51.560Z,69.64
2018-06-16T02:24:51.507Z,69.45
2018-06-16T02:25:51.439Z,69.70
2018-06-16T02:26:51.378Z,69.54
2018-06-16T02:27:51.324Z,69.54
2018-06-16T02:28:51.266Z,69.73
2018-06-16T02:29:51.209Z,70.31
2018-06-16T02:30:51.145Z,69.54
2018-06-16T02:31:51.084Z,69.64
2018-06-16T02:32:51.025Z,70.47
2018-06-16T02:33:50.967Z,70.31
2018-06-16T02:34:50.909Z,70.28
2018-06-16T02:35:50.855Z,69.99
2018-06-16T02:36:50.792Z,70.37
2018-06-16T02:37:50.731Z,70.28
2018-06-16T02:38:50.671Z,69.99
2018-06-16T02:39:50.613Z,70.18
2018-06-16T02:40:50.558Z,70.66
2018-06-16T02:41:50.498Z,70.56
2018-06-16T02:42:50.435Z,70.56
2018-06-16T02:43:50.377Z,70.76
2018-06-16T02:44:50.323Z,70.86
2018-06-16T02:45:50.259Z,70.47
2018-06-16T02:46:50.201Z,70.28
2018-06-16T02:47:50.141Z,70.76
2018-06-16T02:48:50.083Z,71.04
2018-06-16T02:49:50.022Z,70.76
2018-06-16T02:50:49.970Z,71.14
2018-06-16T02:51:49.902Z,71.53
2018-06-16T02:52:49.840Z,71.34
2018-06-16T02:53:49.786Z,71.53
2018-06-16T02:54:49.730Z,71.24
2018-06-16T02:55:49.666Z,71.34
2018-06-16T02:56:49.614Z,70.95
2018-06-16T02:57:49.549Z,71.34
2018-06-16T02:58:49.495Z,71.43
2018-06-16T02:59:49.432Z,71.34
2018-06-16T03:00:49.373Z,70.95
2018-06-16T03:01:49.314Z,71.24
2018-06-16T03:02:49.251Z,71.24
2018-06-16T03:03:49.193Z,71.14
2018-06-16T03:04:49.134Z,71.34
2018-06-16T03:05:49.074Z,71.43
2018-06-16T03:06:49.018Z,71.53
2018-06-16T03:07:48.960Z,71.24
2018-06-16T03:08:48.913Z,71.14
2018-06-16T03:09:48.844Z,71.53
2018-06-16T03:10:48.778Z,71.91
2018-06-16T03:11:48.724Z,71.24
2018-06-16T03:12:48.665Z,71.24
2018-06-16T03:13:48.608Z,72.30
2018-06-16T03:14:48.537Z,71.53
2018-06-16T03:15:48.490Z,72.01
2018-06-16T03:16:48.425Z,72.11
2018-06-16T03:17:48.364Z,71.62
2018-06-16T03:18:48.307Z,71.53
2018-06-16T03:19:48.249Z,71.81
2018-06-16T03:20:48.189Z,71.24
2018-06-16T03:21:48.133Z,71.62
2018-06-16T03:22:48.068Z,71.53
2018-06-16T03:23:48.010Z,71.53
2018-06-16T03:24:47.950Z,71.53
2018-06-16T03:25:47.914Z,71.81
2018-06-16T03:26:47.831Z,71.81
2018-06-16T03:27:47.774Z,71.43
2018-06-16T03:28:47.719Z,71.62
2018-06-16T03:29:47.649Z,71.53
2018-06-16T03:30:47.602Z,71.43
2018-06-16T03:31:47.543Z,71.34
2018-06-16T03:32:47.487Z,71.24
2018-06-16T03:33:47.419Z,71.53
2018-06-16T03:34:47.358Z,71.62
2018-06-16T03:35:47.303Z,71.91
2018-06-16T03:36:47.240Z,71.76
2018-06-16T03:37:47.180Z,72.05
2018-06-16T03:38:47.122Z,71.47
2018-06-16T03:39:47.069Z,71.85
2018-06-16T03:40:47.006Z,71.66
2018-06-16T03:41:46.945Z,71.37
2018-06-16T03:42:46.884Z,71.18
2018-06-16T03:43:46.824Z,71.37
2018-06-16T03:44:46.768Z,71.37
2018-06-16T03:45:46.709Z,71.66
2018-06-16T03:46:46.648Z,71.47
2018-06-16T03:47:46.589Z,70.70
2018-06-16T03:48:46.530Z,70.98
2018-06-16T03:49:46.469Z,71.08
2018-06-16T03:50:46.415Z,70.60
2018-06-16T03:51:46.359Z,71.18
2018-06-16T03:52:46.298Z,71.18
2018-06-16T03:53:46.236Z,71.08
2018-06-16T03:54:46.181Z,70.79
2018-06-16T03:55:46.120Z,70.89
2018-06-16T03:56:46.057Z,70.60
2018-06-16T03:57:45.996Z,70.60
2018-06-16T03:58:45.940Z,70.50
2018-06-16T03:59:45.882Z,70.41
2018-06-16T04:00:45.821Z,69.93
2018-06-16T04:01:45.787Z,70.31
2018-06-16T04:02:45.712Z,70.21
2018-06-16T04:03:45.643Z,70.21
2018-06-16T04:04:45.596Z,70.35
2018-06-16T04:05:45.527Z,70.15
2018-06-16T04:06:45.467Z,70.12
2018-06-16T04:07:45.408Z,70.12
2018-06-16T04:08:45.352Z,70.15
2018-06-16T04:09:45.292Z,70.02
2018-06-16T04:10:45.231Z,69.83
2018-06-16T04:11:45.175Z,70.02
2018-06-16T04:12:45.115Z,70.02
2018-06-16T04:13:45.056Z,70.35
2018-06-16T04:14:44.995Z,70.31
2018-06-16T04:15:44.937Z,70.02
2018-06-16T04:16:44.883Z,70.35
2018-06-16T04:17:44.820Z,70.35
2018-06-16T04:18:44.761Z,69.45
2018-06-16T04:19:44.700Z,69.38
2018-06-16T04:20:44.648Z,69.67
2018-06-16T04:21:44.581Z,69.77
2018-06-16T04:22:44.526Z,69.96
2018-06-16T04:23:44.468Z,69.87
2018-06-16T04:24:44.407Z,69.87
2018-06-16T04:25:44.350Z,69.77
2018-06-16T04:26:44.288Z,69.29
2018-06-16T04:27:44.230Z,69.38
2018-06-16T04:28:44.171Z,69.96
2018-06-16T04:29:44.112Z,69.77
2018-06-16T04:30:44.061Z,69.57
2018-06-16T04:31:43.997Z,69.38
2018-06-16T04:32:43.938Z,69.29
2018-06-16T04:33:43.882Z,69.38
2018-06-16T04:34:43.849Z,68.52
2018-06-16T04:35:43.770Z,68.99
2018-06-16T04:36:43.709Z,68.52
2018-06-16T04:37:43.662Z,68.32
2018-06-16T04:38:43.585Z,68.65
2018-06-16T04:39:43.525Z,68.74
2018-06-16T04:40:43.469Z,68.61
2018-06-16T04:41:43.408Z,68.65
2018-06-16T04:42:43.350Z,68.71
2018-06-16T04:43:43.297Z,68.93
2018-06-16T04:44:43.245Z,68.84
2018-06-16T04:45:43.309Z,68.26
2018-06-16T04:46:43.115Z,68.84
2018-06-16T04:47:43.057Z,68.07
2018-06-16T04:48:43.001Z,68.26
2018-06-16T04:49:42.944Z,68.26
2018-06-16T04:50:42.882Z,68.35
2018-06-16T04:51:42.829Z,68.55
2018-06-16T04:52:42.767Z,67.78
2018-06-16T04:53:42.707Z,67.97
2018-06-16T04:54:42.651Z,68.07
2018-06-16T04:55:42.594Z,67.97
2018-06-16T04:56:42.534Z,68.26
2018-06-16T04:57:42.475Z,67.71
2018-06-16T04:58:42.429Z,67.71
2018-06-16T04:59:42.356Z,67.33
2018-06-16T05:00:42.316Z,67.33
2018-06-16T05:01:42.238Z,67.43
2018-06-16T05:02:42.189Z,67.43
2018-06-16T05:03:42.126Z,67.62
2018-06-16T05:04:42.065Z,67.04
2018-06-16T05:05:42.009Z,67.14
2018-06-16T05:06:41.951Z,67.43
2018-06-16T05:07:41.894Z,67.14
2018-06-16T05:08:41.842Z,67.33
2018-06-16T05:09:41.775Z,66.46
2018-06-16T05:10:41.715Z,67.33
2018-06-16T05:11:41.668Z,66.75
2018-06-16T05:12:41.601Z,66.66
2018-06-16T05:13:41.544Z,67.23
2018-06-16T05:14:41.487Z,66.66
2018-06-16T05:15:41.428Z,66.75
2018-06-16T05:16:41.371Z,66.78
2018-06-16T05:17:41.312Z,66.69
2018-06-16T05:18:41.253Z,66.20
2018-06-16T05:19:41.200Z,66.01
2018-06-16T05:20:41.150Z,66.01
2018-06-16T05:21:41.078Z,65.91
2018-06-16T05:22:41.021Z,66.11
2018-06-16T05:23:40.961Z,65.91
2018-06-16T05:24:40.912Z,66.11
2018-06-16T05:25:40.872Z,66.30
2018-06-16T05:26:40.793Z,66.30
2018-06-16T05:27:40.738Z,66.11
2018-06-16T05:28:40.677Z,66.20
2018-06-16T05:29:40.627Z,66.20
2018-06-16T05:30:40.561Z,65.91
2018-06-16T05:31:40.508Z,66.01
2018-06-16T05:32:40.445Z,65.53
2018-06-16T05:33:40.389Z,66.01
2018-06-16T05:34:40.329Z,66.33
2018-06-16T05:35:40.273Z,65.63
2018-06-16T05:36:40.216Z,65.56
2018-06-16T05:37:40.164Z,65.56
2018-06-16T05:38:40.099Z,65.47
2018-06-16T05:39:40.050Z,65.66
2018-06-16T05:40:39.986Z,65.37
2018-06-16T05:41:39.929Z,65.37
2018-06-16T05:42:39.870Z,65.27
2018-06-16T05:43:39.816Z,64.79
2018-06-16T05:44:39.758Z,65.56
2018-06-16T05:45:39.697Z,64.40
2018-06-16T05:46:39.642Z,64.59
2018-06-16T05:47:39.590Z,64.53
2018-06-16T05:48:39.528Z,64.21
2018-06-16T05:49:39.471Z,64.43
2018-06-16T05:50:39.412Z,64.72
2018-06-16T05:51:39.353Z,64.05
2018-06-16T05:52:39.299Z,64.34
2018-06-16T05:53:39.240Z,64.43
2018-06-16T05:54:39.181Z,63.85
2018-06-16T05:55:39.126Z,64.14
2018-06-16T05:56:39.072Z,63.40
2018-06-16T05:57:39.010Z,63.56
2018-06-16T05:58:38.956Z,63.47
2018-06-16T05:59:38.898Z,63.37
2018-06-16T06:00:38.842Z,63.60
2018-06-16T06:01:38.781Z,63.21
2018-06-16T06:02:38.726Z,62.92
2018-06-16T06:03:38.666Z,62.82
2018-06-16T06:04:38.611Z,62.92
2018-06-16T06:05:38.554Z,62.53
2018-06-16T06:06:38.499Z,62.63
2018-06-16T06:07:38.442Z,62.34
2018-06-16T06:08:38.384Z,62.53
2018-06-16T06:09:38.321Z,62.63
2018-06-16T06:10:38.343Z,62.63
2018-06-16T06:11:38.221Z,61.98
2018-06-16T06:12:38.157Z,61.98
2018-06-16T06:13:38.101Z,61.76
2018-06-16T06:14:38.042Z,61.50
2018-06-16T06:15:38.032Z,61.76
2018-06-16T06:16:37.928Z,61.95
2018-06-16T06:17:37.871Z,61.66
2018-06-16T06:18:37.817Z,62.15
2018-06-16T06:19:37.763Z,62.24
2018-06-16T06:20:37.704Z,62.44
2018-06-16T06:21:37.646Z,62.70
2018-06-16T06:22:37.589Z,62.21
2018-06-16T06:23:37.532Z,62.31
2018-06-16T06:24:37.476Z,62.31
2018-06-16T06:25:37.419Z,62.31
2018-06-16T06:26:37.361Z,62.50
2018-06-16T06:27:37.304Z,62.60
2018-06-16T06:28:37.249Z,62.34
2018-06-16T06:29:37.189Z,62.44
2018-06-16T06:30:37.137Z,61.86
2018-06-16T06:31:37.081Z,61.69
2018-06-16T06:32:37.021Z,62.08
2018-06-16T06:33:36.965Z,61.50
2018-06-16T06:34:36.904Z,61.30
2018-06-16T06:35:36.852Z,61.30
2018-06-16T06:36:36.796Z,61.02
2018-06-16T06:37:36.740Z,61.40
2018-06-16T06:38:36.684Z,60.82
2018-06-16T06:39:36.629Z,61.63
2018-06-16T06:40:36.567Z,61.05
2018-06-16T06:41:36.518Z,61.05
2018-06-16T06:42:36.457Z,60.08
2018-06-16T06:43:36.406Z,60.47
2018-06-16T06:44:36.347Z,60.01
2018-06-16T06:45:36.291Z,60.21
2018-06-16T06:46:36.233Z,59.53
2018-06-16T06:47:36.177Z,59.53
2018-06-16T06:48:36.121Z,59.50
2018-06-16T06:49:36.063Z,59.69
2018-06-16T06:50:36.011Z,59.21
2018-06-16T06:51:35.967Z,59.33
2018-06-16T06:52:35.896Z,59.53
2018-06-16T06:53:35.845Z,59.01
2018-06-16T06:54:35.784Z,59.53
2018-06-16T06:55:35.729Z,59.05
2018-06-16T06:56:35.675Z,58.95
2018-06-16T06:57:35.618Z,59.43
2018-06-16T06:58:35.561Z,58.65
2018-06-16T06:59:35.503Z,59.05
2018-06-16T07:00:35.455Z,58.59
2018-06-16T07:01:35.393Z,58.69
2018-06-16T07:02:35.340Z,58.30
2018-06-16T07:03:35.287Z,58.39
2018-06-16T07:04:35.231Z,58.27
2018-06-16T07:05:35.172Z,58.39
2018-06-16T07:06:35.120Z,58.39
2018-06-16T07:07:35.058Z,57.91
2018-06-16T07:08:35.007Z,58.30
2018-06-16T07:09:34.952Z,58.37
2018-06-16T07:10:34.907Z,57.71
2018-06-16T07:11:34.841Z,57.71
2018-06-16T07:12:34.784Z,56.94
2018-06-16T07:13:34.743Z,57.23
2018-06-16T07:14:34.674Z,56.85
2018-06-16T07:15:34.620Z,56.75
2018-06-16T07:16:34.563Z,57.33
2018-06-16T07:17:34.508Z,56.87
2018-06-16T07:18:34.451Z,56.77
2018-06-16T07:19:34.396Z,57.04
2018-06-16T07:20:34.346Z,56.94
2018-06-16T07:21:34.286Z,56.75
2018-06-16T07:22:34.231Z,57.04
2018-06-16T07:23:34.219Z,56.94
2018-06-16T07:24:34.125Z,56.56
2018-06-16T07:25:34.063Z,56.36
2018-06-16T07:26:34.010Z,55.88
2018-06-16T07:27:33.959Z,56.26
2018-06-16T07:28:33.902Z,56.00
2018-06-16T07:29:33.845Z,56.36
2018-06-16T07:30:33.788Z,55.71
2018-06-16T07:31:33.733Z,55.90
2018-06-16T07:32:33.679Z,55.52
2018-06-16T07:33:33.626Z,55.04
2018-06-16T07:34:33.572Z,55.22
2018-06-16T07:35:33.516Z,55.13
2018-06-16T07:36:33.464Z,54.96
2018-06-16T07:37:33.406Z,55.32
2018-06-16T07:38:33.353Z,55.22
2018-06-16T07:39:33.295Z,54.94
2018-06-16T07:40:33.240Z,55.04
2018-06-16T07:41:33.242Z,55.22
2018-06-16T07:42:33.130Z,55.32
2018-06-16T07:43:33.078Z,55.44
2018-06-16T07:44:33.021Z,54.58
2018-06-16T07:45:32.965Z,55.16
2018-06-16T07:46:32.914Z,54.09
2018-06-16T07:47:32.861Z,54.19
2018-06-16T07:48:32.804Z,54.38
2018-06-16T07:49:32.749Z,54.35
2018-06-16T07:50:32.694Z,54.55
2018-06-16T07:51:32.637Z,55.13
2018-06-16T07:52:32.581Z,54.09
2018-06-16T07:53:32.526Z,54.38
2018-06-16T07:54:32.475Z,54.09
2018-06-16T07:55:32.420Z,53.80
2018-06-16T07:56:32.367Z,53.99
2018-06-16T07:57:32.315Z,53.70
2018-06-16T07:58:32.253Z,53.80
2018-06-16T07:59:32.204Z,53.99
2018-06-16T08:00:32.156Z,53.97
2018-06-16T08:01:32.096Z,53.67
2018-06-16T08:02:32.035Z,53.70
2018-06-16T08:03:31.980Z,53.70
2018-06-16T08:04:31.929Z,53.24
2018-06-16T08:05:31.871Z,52.86
2018-06-16T08:06:31.818Z,52.40
2018-06-16T08:07:31.765Z,52.78
2018-06-16T08:08:31.709Z,51.91
2018-06-16T08:09:31.654Z,52.01
2018-06-16T08:10:31.598Z,51.81
2018-06-16T08:11:31.543Z,51.06
2018-06-16T08:12:31.491Z,51.16
2018-06-16T08:13:31.436Z,51.06
2018-06-16T08:14:31.383Z,51.26
2018-06-16T08:15:31.330Z,50.87
2018-06-16T08:16:31.274Z,51.16
2018-06-16T08:17:31.219Z,50.77
2018-06-16T08:18:31.168Z,50.60
2018-06-16T08:19:31.113Z,50.51
2018-06-16T08:20:31.060Z,50.31
2018-06-16T08:21:31.005Z,50.51
2018-06-16T08:22:30.949Z,50.31
2018-06-16T08:23:30.896Z,50.29
2018-06-16T08:24:30.874Z,50.38
2018-06-16T08:25:30.787Z,50.58
2018-06-16T08:26:31.986Z,50.58
2018-06-16T08:27:30.683Z,50.12
2018-06-16T08:28:30.629Z,49.80
2018-06-16T08:29:30.574Z,49.99
2018-06-16T08:30:30.519Z,49.61
2018-06-16T08:31:30.466Z,49.44
2018-06-16T08:32:30.415Z,49.15
2018-06-16T08:33:30.361Z,49.05
2018-06-16T08:34:30.304Z,49.34
2018-06-16T08:35:30.256Z,49.15
2018-06-16T08:36:30.198Z,49.05
2018-06-16T08:37:30.150Z,48.95
2018-06-16T08:38:30.095Z,48.30
2018-06-16T08:39:30.042Z,48.78
2018-06-16T08:40:29.986Z,48.20
2018-06-16T08:41:29.931Z,48.00
2018-06-16T08:42:29.879Z,47.54
2018-06-16T08:43:29.826Z,47.15
2018-06-16T08:44:29.772Z,47.08
2018-06-16T08:45:29.718Z,46.30
2018-06-16T08:46:29.667Z,46.59
2018-06-16T08:47:29.622Z,46.20
2018-06-16T08:48:29.560Z,46.37
2018-06-16T08:49:29.507Z,46.57
2018-06-16T08:50:29.456Z,46.47
2018-06-16T08:51:29.403Z,46.20
2018-06-16T08:52:29.349Z,45.72
2018-06-16T08:53:29.293Z,45.52
2018-06-16T08:54:29.239Z,45.62
2018-06-16T08:55:29.219Z,45.72
2018-06-16T08:56:29.138Z,45.42
2018-06-16T08:57:29.080Z,45.32
2018-06-16T08:58:29.031Z,45.15
2018-06-16T08:59:28.978Z,45.15
2018-06-16T09:00:28.922Z,45.15
2018-06-16T09:01:28.871Z,44.96
2018-06-16T09:02:28.816Z,44.86
2018-06-16T09:03:28.763Z,44.76
2018-06-16T09:04:28.719Z,44.76
2018-06-16T09:05:28.658Z,44.76
2018-06-16T09:06:28.603Z,44.30
2018-06-16T09:07:28.554Z,44.01
2018-06-16T09:08:28.502Z,44.20
2018-06-16T09:09:28.455Z,44.20
2018-06-16T09:10:28.399Z,44.10
2018-06-16T09:11:28.364Z,43.91
2018-06-16T09:12:28.292Z,43.91
2018-06-16T09:13:28.245Z,44.10
2018-06-16T09:14:28.185Z,43.52
2018-06-16T09:15:28.134Z,43.62
2018-06-16T09:16:28.094Z,43.62
2018-06-16T09:17:28.037Z,43.71
2018-06-16T09:18:27.977Z,44.01
2018-06-16T09:19:27.926Z,43.52
2018-06-16T09:20:27.871Z,43.43
2018-06-16T09:21:27.819Z,43.23
2018-06-16T09:22:27.768Z,43.60
2018-06-16T09:23:27.719Z,43.50
2018-06-16T09:24:27.664Z,43.48
2018-06-16T09:25:27.611Z,43.38
2018-06-16T09:26:27.560Z,43.48
2018-06-16T09:27:27.504Z,43.36
2018-06-16T09:28:27.455Z,43.36
2018-06-16T09:29:27.403Z,43.26
2018-06-16T09:30:27.348Z,43.65
2018-06-16T09:31:27.295Z,43.46
2018-06-16T09:32:27.245Z,43.16
2018-06-16T09:33:27.189Z,42.97
2018-06-16T09:34:27.139Z,43.07
2018-06-16T09:35:27.089Z,42.90
2018-06-16T09:36:27.032Z,42.41
2018-06-16T09:37:26.980Z,42.50
2018-06-16T09:38:26.928Z,42.31
2018-06-16T09:39:26.885Z,42.41
2018-06-16T09:40:26.832Z,42.14
2018-06-16T09:41:26.775Z,42.14
2018-06-16T09:42:26.749Z,42.04
2018-06-16T09:43:26.660Z,42.14
2018-06-16T09:44:26.624Z,42.33
2018-06-16T09:45:26.557Z,41.75
2018-06-16T09:46:26.507Z,41.96
2018-06-16T09:47:26.457Z,41.94
2018-06-16T09:48:26.403Z,41.36
2018-06-16T09:49:26.349Z,42.04
2018-06-16T09:50:26.302Z,42.04
2018-06-16T09:51:26.244Z,41.38
2018-06-16T09:52:26.192Z,41.09
2018-06-16T09:53:26.145Z,41.19
2018-06-16T09:54:26.084Z,41.19
2018-06-16T09:55:26.032Z,41.09
2018-06-16T09:56:25.980Z,40.60
2018-06-16T09:57:25.928Z,40.89
2018-06-16T09:58:25.876Z,40.99
2018-06-16T09:59:25.823Z,40.99
2018-06-16T10:00:25.772Z,40.72
2018-06-16T10:01:25.719Z,40.25
2018-06-16T10:02:25.665Z,40.25
2018-06-16T10:03:25.693Z,40.25
2018-06-16T10:04:25.562Z,39.86
2018-06-16T10:05:25.508Z,40.23
2018-06-16T10:06:25.458Z,40.13
2018-06-16T10:07:25.406Z,39.84
2018-06-16T10:08:25.353Z,40.33
2018-06-16T10:09:25.351Z,40.01
2018-06-16T10:10:25.255Z,40.60
2018-06-16T10:11:25.208Z,40.50
2018-06-16T10:12:25.144Z,40.50
2018-06-16T10:13:25.130Z,40.80
2018-06-16T10:14:25.040Z,40.60
2018-06-16T10:15:24.983Z,40.21
2018-06-16T10:16:24.933Z,40.41
2018-06-16T10:17:24.887Z,39.84
2018-06-16T10:18:24.829Z,40.33
2018-06-16T10:19:24.779Z,39.55
2018-06-16T10:20:24.725Z,39.76
2018-06-16T10:21:24.674Z,39.67
2018-06-16T10:22:24.618Z,39.37
2018-06-16T10:23:24.568Z,39.10
2018-06-16T10:24:24.517Z,38.63
2018-06-16T10:25:24.465Z,38.45
2018-06-16T10:26:24.412Z,38.06
2018-06-16T10:27:24.359Z,38.16
2018-06-16T10:28:24.308Z,37.96
2018-06-16T10:29:24.256Z,37.77
2018-06-16T10:30:24.207Z,37.87
2018-06-16T10:31:24.155Z,37.77
2018-06-16T10:32:24.103Z,37.60
2018-06-16T10:33:24.049Z,37.21
2018-06-16T10:34:23.998Z,37.11
2018-06-16T10:35:23.950Z,37.11
2018-06-16T10:36:23.920Z,37.01
2018-06-16T10:37:23.854Z,37.09
2018-06-16T10:38:23.803Z,37.09
2018-06-16T10:39:23.746Z,37.38
2018-06-16T10:40:23.689Z,37.09
2018-06-16T10:41:23.637Z,37.19
2018-06-16T10:42:23.590Z,37.19
2018-06-16T10:43:23.542Z,36.91
2018-06-16T10:44:23.490Z,37.01
2018-06-16T10:45:23.440Z,37.01
2018-06-16T10:46:23.378Z,37.09
2018-06-16T10:47:23.329Z,37.19
2018-06-16T10:48:23.279Z,37.48
2018-06-16T10:49:23.234Z,37.37
2018-06-16T10:50:23.177Z,37.75
2018-06-16T10:51:23.132Z,37.75
2018-06-16T10:52:23.072Z,37.75
2018-06-16T10:53:23.022Z,37.85
2018-06-16T10:54:22.969Z,37.83
2018-06-16T10:55:22.918Z,37.95
2018-06-16T10:56:22.868Z,37.37
2018-06-16T10:57:22.816Z,37.38
2018-06-16T10:58:22.771Z,37.46
2018-06-16T10:59:22.711Z,37.85
2018-06-16T11:00:22.702Z,37.85
2018-06-16T11:01:22.607Z,38.04
2018-06-16T11:02:22.561Z,38.42
2018-06-16T11:03:22.563Z,38.71
2018-06-16T11:04:22.488Z,38.90
2018-06-16T11:05:22.408Z,38.40
2018-06-16T11:06:22.352Z,38.61
2018-06-16T11:07:22.299Z,38.61
2018-06-16T11:08:22.249Z,38.69
2018-06-16T11:09:22.274Z,39.18
2018-06-16T11:10:22.147Z,38.79
2018-06-16T11:11:22.115Z,38.59
2018-06-16T11:12:22.040Z,38.59
2018-06-16T11:13:21.989Z,38.14
2018-06-16T11:14:21.942Z,37.57
2018-06-16T11:15:21.901Z,37.19
2018-06-16T11:16:21.854Z,36.91
2018-06-16T11:17:21.784Z,37.21
2018-06-16T11:18:21.736Z,36.91
2018-06-16T11:19:21.701Z,36.52
2018-06-16T11:20:21.643Z,36.44
2018-06-16T11:21:21.587Z,36.34
2018-06-16T11:22:21.535Z,36.24
2018-06-16T11:23:21.495Z,36.43
2018-06-16T11:24:21.436Z,36.52
2018-06-16T11:25:21.385Z,36.52
2018-06-16T11:26:21.331Z,36.33
2018-06-16T11:27:21.292Z,36.13
2018-06-16T11:28:21.236Z,36.05
2018-06-16T11:29:21.189Z,35.85
2018-06-16T11:30:21.147Z,35.66
2018-06-16T11:31:21.087Z,35.48
2018-06-16T11:32:21.036Z,35.48
2018-06-16T11:33:20.992Z,35.03
2018-06-16T11:34:20.962Z,35.03
2018-06-16T11:35:20.906Z,34.84
2018-06-16T11:36:20.858Z,34.65
2018-06-16T11:37:20.805Z,34.55
2018-06-16T11:38:20.772Z,34.57
2018-06-16T11:39:20.735Z,34.18
2018-06-16T11:40:20.666Z,34.28
2018-06-16T11:41:20.623Z,33.80
2018-06-16T11:42:20.572Z,33.90
2018-06-16T11:43:20.542Z,33.80
2018-06-16T11:44:20.482Z,33.23
2018-06-16T11:45:20.431Z,33.43
2018-06-16T11:46:20.404Z,33.33
2018-06-16T11:47:20.345Z,33.41
2018-06-16T11:48:20.301Z,33.22
2018-06-16T11:49:20.256Z,33.41
2018-06-16T11:50:20.258Z,33.31
2018-06-16T11:51:20.161Z,33.14
2018-06-16T11:52:20.115Z,33.22
2018-06-16T11:53:20.066Z,33.50
2018-06-16T11:54:20.022Z,33.29
2018-06-16T11:55:19.987Z,33.22
2018-06-16T11:56:19.932Z,33.41
2018-06-16T11:57:19.882Z,33.22
2018-06-16T11:58:19.836Z,33.31
2018-06-16T11:59:19.795Z,33.29
2018-06-16T12:00:19.743Z,33.29
2018-06-16T12:01:19.699Z,33.39
2018-06-16T12:02:19.651Z,32.82
2018-06-16T12:03:19.607Z,32.45
2018-06-16T12:04:19.557Z,32.54
2018-06-16T12:05:19.504Z,32.54
2018-06-16T12:06:19.465Z,32.53
2018-06-16T12:07:19.419Z,33.02
2018-06-16T12:08:19.368Z,33.10
2018-06-16T12:09:19.324Z,33.29
2018-06-16T12:10:19.289Z,33.29
2018-06-16T12:11:19.242Z,33.18
2018-06-16T12:12:19.178Z,33.18
2018-06-16T12:13:19.126Z,33.29
2018-06-16T12:14:19.081Z,33.18
2018-06-16T12:15:19.034Z,33.38
2018-06-16T12:16:18.982Z,33.28
2018-06-16T12:17:18.938Z,33.07
2018-06-16T12:18:18.888Z,33.46
2018-06-16T12:19:18.849Z,33.65
2018-06-16T12:20:18.794Z,33.18
2018-06-16T12:21:18.738Z,33.20
2018-06-16T12:22:18.690Z,33.20
2018-06-16T12:23:18.642Z,33.38
2018-06-16T12:24:18.592Z,33.38
2018-06-16T12:25:18.542Z,33.20
2018-06-16T12:26:18.502Z,32.81
2018-06-16T12:27:18.452Z,32.63
2018-06-16T12:28:18.401Z,32.63
2018-06-16T12:29:18.348Z,32.35
2018-06-16T12:30:18.300Z,32.37
2018-06-16T12:31:18.252Z,32.25
2018-06-16T12:32:18.208Z,32.14
2018-06-16T12:33:18.156Z,32.15
2018-06-16T12:34:18.108Z,32.15
2018-06-16T12:35:18.055Z,32.25
2018-06-16T12:36:18.014Z,31.94
2018-06-16T12:37:17.983Z,32.51
2018-06-16T12:38:17.910Z,32.71
2018-06-16T12:39:17.873Z,32.79
2018-06-16T12:40:17.810Z,32.97
2018-06-16T12:41:17.765Z,33.26
2018-06-16T12:42:17.711Z,33.17
2018-06-16T12:43:17.706Z,32.87
2018-06-16T12:44:17.624Z,32.87
2018-06-16T12:45:17.569Z,32.70
2018-06-16T12:46:17.521Z,32.30
2018-06-16T12:47:17.464Z,32.10
2018-06-16T12:48:17.424Z,32.10
2018-06-16T12:49:17.361Z,31.91
2018-06-16T12:50:17.438Z,32.10
2018-06-16T12:51:17.274Z,31.63